Time;durP1;ratioP1;P1;durP2;ratioP2;P2;SDS_P1;SDS_P2;PMS_P1;PMS_P2;Temp;Humidity;BMP_temperature;BMP_pressure;BME280_temperature;BME280_humidity;BME280_pressure;Samples;Min_cycle;Max_cycle;Signal;HPM_P1;HPM_P2
2023/11/29 00:01:10;;;;;;;;;;;;;;;4.02;41.94;100572.34;5040463;28;20024;-82
2023/11/29 00:03:35;;;;;;;;;;;;;;;4.06;41.92;100568.25;5042410;28;20015;-81
2023/11/29 00:06:02;;;;;;;;;;;;;;;4.14;41.85;100571.47;5048292;28;19921;-82
2023/11/29 00:08:28;;;;;;;;;;;;;;;4.16;41.86;100577.38;5042373;28;20376;-82
2023/11/29 00:10:53;;;;;;;;;;;;;;;4.17;41.73;100570.25;5042230;28;20380;-82
2023/11/29 00:13:20;;;;;;;;;;;;;;;4.17;41.93;100572.91;5048385;28;19928;-82
2023/11/29 00:15:46;;;;;;;;;;;;;;;4.18;41.92;100567.38;5049657;28;20014;-81
2023/11/29 00:18:11;;;;;;;;;;;;;;;4.21;41.94;100566.97;5042990;28;20395;-82
2023/11/29 00:20:37;;;;;;;;;;;;;;;4.19;42.10;100562.88;5042463;28;19933;-82
2023/11/29 00:23:02;;;;;;;;;;;;;;;4.19;42.11;100569.00;5037977;28;19928;-82
2023/11/29 00:25:27;;;;;;;;;;;;;;;4.24;42.25;100565.72;5042654;28;19931;-81
2023/11/29 00:27:52;;;;;;;;;;;;;;;4.27;42.03;100559.97;5043482;28;19923;-81
2023/11/29 00:30:18;;;;;;;;;;;;;;;4.26;42.14;100553.06;5047146;28;19970;-82
2023/11/29 00:32:43;;;;;;;;;;;;;;;4.28;42.32;100550.19;5041552;28;19917;-82
2023/11/29 00:35:08;;;;;;;;;;;;;;;4.30;42.48;100551.59;5041597;28;19970;-82
2023/11/29 00:37:34;;;;;;;;;;;;;;;4.31;42.59;100545.31;5043705;28;19990;-81
2023/11/29 00:39:59;;;;;;;;;;;;;;;4.32;42.60;100546.94;5043567;28;19986;-81
2023/11/29 00:42:25;;;;;;;;;;;;;;;4.35;42.50;100540.38;5045086;28;20589;-82
2023/11/29 00:44:52;;;;;;;;;;;;;;;4.36;42.44;100534.06;5040575;28;19917;-82
2023/11/29 00:47:17;;;;;;;;;;;;;;;4.37;42.42;100535.69;5042789;28;19916;-82
2023/11/29 00:49:43;;;;;;;;;;;;;;;4.36;42.45;100537.50;5039993;28;20023;-81
2023/11/29 00:52:08;;;;;;;;;;;;;;;4.37;42.64;100527.72;5041013;28;20028;-82
2023/11/29 00:54:33;;;;;;;;;;;;;;;4.37;42.52;100528.53;5045434;28;19924;-81
2023/11/29 00:56:58;;;;;;;;;;;;;;;4.37;42.66;100531.19;5041979;28;19928;-82
2023/11/29 00:59:24;;;;;;;;;;;;;;;4.37;42.39;100539.13;5037366;28;19924;-81
2023/11/29 01:01:49;;;;;;;;;;;;;;;4.36;42.45;100536.69;5039746;28;19932;-82
2023/11/29 01:04:14;;;;;;;;;;;;;;;4.33;42.41;100535.28;5048047;28;19916;-82
2023/11/29 01:06:41;;;;;;;;;;;;;;;4.28;42.27;100543.03;5039857;28;19986;-82
2023/11/29 01:09:06;;;;;;;;;;;;;;;4.25;42.19;100554.09;5039728;28;19921;-82
2023/11/29 01:11:32;;;;;;;;;;;;;;;4.19;42.20;100550.44;5040108;28;19921;-82
2023/11/29 01:13:57;;;;;;;;;;;;;;;4.15;42.44;100551.09;5042140;28;19969;-82
2023/11/29 01:16:22;;;;;;;;;;;;;;;4.15;42.43;100540.47;5040148;28;19925;-82
2023/11/29 01:18:48;;;;;;;;;;;;;;;4.15;42.47;100535.19;5040214;28;20012;-82
2023/11/29 01:21:14;;;;;;;;;;;;;;;4.12;42.50;100536.38;5038138;28;19920;-82
2023/11/29 01:23:39;;;;;;;;;;;;;;;4.09;42.41;100534.16;5043341;28;19916;-81
2023/11/29 01:26:04;;;;;;;;;;;;;;;4.09;42.71;100530.69;5041379;28;20396;-81
2023/11/29 01:28:30;;;;;;;;;;;;;;;4.12;42.84;100528.44;5047680;28;19978;-82
2023/11/29 01:30:55;;;;;;;;;;;;;;;4.15;43.03;100525.38;5043895;28;19927;-82
2023/11/29 01:33:21;;;;;;;;;;;;;;;4.19;42.78;100517.81;5043532;28;19917;-81
2023/11/29 01:35:46;;;;;;;;;;;;;;;4.21;42.86;100521.88;5043279;28;19921;-81
2023/11/29 01:38:12;;;;;;;;;;;;;;;4.23;43.10;100511.06;5038522;28;19927;-81
2023/11/29 01:40:37;;;;;;;;;;;;;;;4.26;42.92;100513.28;5042097;28;19929;-81
2023/11/29 01:43:02;;;;;;;;;;;;;;;4.27;43.20;100509.59;5043250;28;19928;-81
2023/11/29 01:45:28;;;;;;;;;;;;;;;4.32;43.24;100506.31;5042818;28;20309;-82
2023/11/29 01:47:53;;;;;;;;;;;;;;;4.35;43.09;100501.41;5038504;28;19917;-82
2023/11/29 01:50:20;;;;;;;;;;;;;;;4.38;43.06;100506.28;5037885;28;20578;-81
2023/11/29 01:52:45;;;;;;;;;;;;;;;4.38;42.84;100500.16;5040549;28;19917;-82
2023/11/29 01:55:12;;;;;;;;;;;;;;;4.36;42.90;100494.25;5043106;28;19928;-82
2023/11/29 01:57:37;;;;;;;;;;;;;;;4.33;43.11;100484.09;5042123;28;19982;-81
2023/11/29 02:00:03;;;;;;;;;;;;;;;4.31;43.10;100486.09;5046920;28;20381;-82
2023/11/29 02:02:28;;;;;;;;;;;;;;;4.29;43.10;100483.66;5041069;28;20012;-82
2023/11/29 02:04:54;;;;;;;;;;;;;;;4.32;43.18;100483.28;5036894;28;20007;-81
2023/11/29 02:07:20;;;;;;;;;;;;;;;4.34;43.01;100485.72;5041385;28;19924;-81
2023/11/29 02:09:45;;;;;;;;;;;;;;;4.29;42.92;100488.97;5045892;28;19925;-82
2023/11/29 02:12:10;;;;;;;;;;;;;;;4.28;42.89;100487.34;5047942;28;19916;-81
2023/11/29 02:14:40;;;;;;;;;;;;;;;4.19;43.24;100491.28;5048086;28;19928;-81
2023/11/29 02:17:06;;;;;;;;;;;;;;;4.13;43.17;100487.66;5040046;28;19936;-82
2023/11/29 02:19:31;;;;;;;;;;;;;;;4.10;43.36;100479.28;5042251;28;19920;-81
2023/11/29 02:21:57;;;;;;;;;;;;;;;4.10;43.33;100479.28;5045036;28;19920;-81
2023/11/29 02:24:27;;;;;;;;;;;;;;;4.12;43.42;100483.34;5040686;28;19924;-81
2023/11/29 02:26:54;;;;;;;;;;;;;;;4.15;42.99;100484.78;5041776;28;19929;-81
2023/11/29 02:29:19;;;;;;;;;;;;;;;4.14;43.22;100481.34;5046820;28;19924;-82
2023/11/29 02:31:44;;;;;;;;;;;;;;;4.14;43.49;100477.88;5046612;28;19917;-81
2023/11/29 02:34:09;;;;;;;;;;;;;;;4.16;43.41;100483.78;5047212;28;19925;-81
2023/11/29 02:36:35;;;;;;;;;;;;;;;4.20;43.56;100477.81;5044935;28;19921;-81
2023/11/29 02:39:01;;;;;;;;;;;;;;;4.22;43.64;100467.00;5042679;28;20018;-81
2023/11/29 02:41:26;;;;;;;;;;;;;;;4.23;43.87;100465.97;5049828;28;19924;-82
2023/11/29 02:43:55;;;;;;;;;;;;;;;4.23;44.09;100458.00;5043676;28;19920;-81
2023/11/29 02:46:20;;;;;;;;;;;;;;;4.23;43.91;100456.19;5045853;28;19932;-82
2023/11/29 02:48:46;;;;;;;;;;;;;;;4.24;44.02;100446.38;5041202;28;19917;-81
2023/11/29 02:51:11;;;;;;;;;;;;;;;4.24;43.99;100449.03;5045169;28;20385;-81
2023/11/29 02:53:37;;;;;;;;;;;;;;;4.25;43.83;100451.47;5044475;28;19921;-81
2023/11/29 02:56:02;;;;;;;;;;;;;;;4.27;44.05;100437.19;5044709;28;19979;-81
2023/11/29 02:58:27;;;;;;;;;;;;;;;4.31;44.15;100427.75;5041924;28;20345;-82
2023/11/29 03:00:53;;;;;;;;;;;;;;;4.34;44.17;100428.16;5048412;28;20033;-81
2023/11/29 03:03:18;;;;;;;;;;;;;;;4.38;44.18;100431.19;5045541;28;20015;-81
2023/11/29 03:05:43;;;;;;;;;;;;;;;4.38;44.25;100418.75;5048134;28;19989;-81
2023/11/29 03:08:09;;;;;;;;;;;;;;;4.37;44.28;100416.31;5044454;28;20475;-81
2023/11/29 03:10:34;;;;;;;;;;;;;;;4.36;44.45;100423.47;5045640;28;20066;-81
2023/11/29 03:13:00;;;;;;;;;;;;;;;4.39;44.27;100415.06;5045095;28;20453;-81
2023/11/29 03:15:25;;;;;;;;;;;;;;;4.32;44.93;100411.66;5043482;28;19921;-81
2023/11/29 03:17:50;;;;;;;;;;;;;;;4.22;44.86;100416.63;5042651;28;19925;-82
2023/11/29 03:20:16;;;;;;;;;;;;;;;4.22;44.54;100411.31;5045499;28;19936;-81
2023/11/29 03:22:41;;;;;;;;;;;;;;;4.20;44.71;100416.81;5043064;28;19931;-81
2023/11/29 03:25:07;;;;;;;;;;;;;;;4.18;45.07;100402.16;5038135;28;20446;-81
2023/11/29 03:27:32;;;;;;;;;;;;;;;4.15;45.06;100399.94;5045255;28;19956;-81
2023/11/29 03:29:57;;;;;;;;;;;;;;;4.12;45.06;100398.50;5048565;28;20035;-81
2023/11/29 03:32:23;;;;;;;;;;;;;;;4.11;44.67;100393.41;5045026;28;20411;-81
2023/11/29 03:34:48;;;;;;;;;;;;;;;4.08;45.51;100380.59;5050051;28;19967;-81
2023/11/29 03:37:13;;;;;;;;;;;;;;;4.03;45.60;100377.78;5040236;28;19921;-81
2023/11/29 03:39:39;;;;;;;;;;;;;;;3.99;45.58;100372.09;5038670;28;20328;-81
2023/11/29 03:42:04;;;;;;;;;;;;;;;3.96;45.60;100366.44;5044667;28;20019;-81
2023/11/29 03:44:30;;;;;;;;;;;;;;;3.92;45.79;100366.81;5048969;28;19928;-81
2023/11/29 03:46:55;;;;;;;;;;;;;;;3.88;45.73;100359.53;5038905;28;19921;-81
2023/11/29 03:49:20;;;;;;;;;;;;;;;3.89;45.39;100361.16;5039953;28;19921;-81
2023/11/29 03:51:46;;;;;;;;;;;;;;;3.87;46.08;100352.59;5043910;28;20007;-81
2023/11/29 03:54:11;;;;;;;;;;;;;;;3.86;45.58;100351.78;5043450;28;19917;-81
2023/11/29 03:56:36;;;;;;;;;;;;;;;3.82;46.14;100339.19;5042091;28;19921;-81
2023/11/29 03:59:02;;;;;;;;;;;;;;;3.79;46.15;100321.88;5039323;28;19924;-81
2023/11/29 04:01:30;;;;;;;;;;;;;;;3.77;46.16;100331.03;5045550;28;20320;-81
2023/11/29 04:03:56;;;;;;;;;;;;;;;3.78;46.05;100327.41;5037908;28;19924;-81
2023/11/29 04:06:30;;;;;;;;;;;;;;;3.78;46.49;100328.22;5043576;28;19923;-81
2023/11/29 04:08:56;;;;;;;;;;;;;;;3.79;46.40;100318.41;5042541;28;20339;-81
2023/11/29 04:11:21;;;;;;;;;;;;;;;3.78;45.98;100317.59;5042153;28;20047;-82
2023/11/29 04:13:47;;;;;;;;;;;;;;;3.82;45.80;100321.44;5043416;28;19952;-81
2023/11/29 04:16:19;;;;;;;;;;;;;;;3.79;47.02;100319.22;5045750;28;19917;-81
2023/11/29 04:18:44;;;;;;;;;;;;;;;3.72;46.78;100323.75;5044495;28;20443;-81
2023/11/29 04:21:17;;;;;;;;;;;;;;;3.62;46.78;100320.75;5042399;28;19968;-81
2023/11/29 04:23:43;;;;;;;;;;;;;;;3.57;46.92;100315.25;5046746;28;19982;-82
2023/11/29 04:26:09;;;;;;;;;;;;;;;3.51;47.21;100314.28;5043145;28;20396;-82
2023/11/29 04:28:34;;;;;;;;;;;;;;;3.53;46.86;100316.72;5039458;28;20660;-81
2023/11/29 04:30:59;;;;;;;;;;;;;;;3.51;46.95;100316.13;5041969;28;20285;-81
2023/11/29 04:33:25;;;;;;;;;;;;;;;3.49;46.73;100302.28;5041721;28;20396;-81
2023/11/29 04:35:52;;;;;;;;;;;;;;;3.50;46.80;100309.22;5043549;28;19921;-81
2023/11/29 04:38:18;;;;;;;;;;;;;;;3.48;46.54;100303.31;5040432;28;19968;-81
2023/11/29 04:40:43;;;;;;;;;;;;;;;3.47;46.88;100304.34;5042019;28;20410;-81
2023/11/29 04:43:08;;;;;;;;;;;;;;;3.43;46.59;100297.84;5044435;28;19921;-81
2023/11/29 04:45:34;;;;;;;;;;;;;;;3.42;46.41;100306.81;5045017;28;19917;-81
2023/11/29 04:47:59;;;;;;;;;;;;;;;3.37;47.10;100293.38;5043468;28;19921;-81
2023/11/29 04:50:24;;;;;;;;;;;;;;;3.39;46.53;100308.03;5042814;28;20764;-81
2023/11/29 04:52:50;;;;;;;;;;;;;;;3.34;46.99;100302.56;5045230;28;20441;-81
2023/11/29 04:55:15;;;;;;;;;;;;;;;3.37;46.52;100307.44;5047156;28;19917;-81
2023/11/29 04:57:40;;;;;;;;;;;;;;;3.39;46.74;100302.72;5044641;28;19925;-81
2023/11/29 05:00:06;;;;;;;;;;;;;;;3.37;46.57;100306.63;5043028;28;19917;-81
2023/11/29 05:02:31;;;;;;;;;;;;;;;3.38;46.40;100305.59;5041633;28;19973;-81
2023/11/29 05:04:57;;;;;;;;;;;;;;;3.38;46.57;100311.69;5045161;28;19917;-81
2023/11/29 05:07:22;;;;;;;;;;;;;;;3.31;46.77;100301.16;5048015;28;19932;-81
2023/11/29 05:09:47;;;;;;;;;;;;;;;3.22;46.89;100307.69;5045775;28;19954;-81
2023/11/29 05:12:13;;;;;;;;;;;;;;;3.25;46.75;100302.00;5042155;28;19928;-81
2023/11/29 05:14:38;;;;;;;;;;;;;;;3.28;46.83;100306.06;5045418;28;19921;-81
2023/11/29 05:17:03;;;;;;;;;;;;;;;3.27;46.81;100299.97;5040350;28;19931;-81
2023/11/29 05:19:29;;;;;;;;;;;;;;;3.26;46.62;100281.63;5043455;28;20761;-81
2023/11/29 05:21:54;;;;;;;;;;;;;;;3.30;46.41;100277.53;5043977;28;19931;-81
2023/11/29 05:24:19;;;;;;;;;;;;;;;3.28;46.78;100277.75;5039977;28;19921;-81
2023/11/29 05:26:45;;;;;;;;;;;;;;;3.31;46.28;100284.47;5040618;28;19939;-81
2023/11/29 05:29:10;;;;;;;;;;;;;;;3.31;46.47;100279.16;5044640;28;20015;-81
2023/11/29 05:31:35;;;;;;;;;;;;;;;3.32;46.43;100276.28;5043672;28;19916;-81
2023/11/29 05:34:01;;;;;;;;;;;;;;;3.33;46.40;100269.97;5043679;28;19921;-81
2023/11/29 05:36:26;;;;;;;;;;;;;;;3.40;46.01;100267.28;5047838;28;19931;-81
2023/11/29 05:38:52;;;;;;;;;;;;;;;3.50;46.02;100258.88;5049808;28;20050;-81
2023/11/29 05:41:17;;;;;;;;;;;;;;;3.46;45.77;100250.56;5045445;28;19982;-81
2023/11/29 05:43:42;;;;;;;;;;;;;;;3.46;45.92;100253.22;5049071;28;19997;-81
2023/11/29 05:46:08;;;;;;;;;;;;;;;3.48;45.73;100250.34;5047993;28;20068;-81
2023/11/29 05:48:33;;;;;;;;;;;;;;;3.51;45.46;100245.44;5045658;28;19974;-81
2023/11/29 05:50:58;;;;;;;;;;;;;;;3.51;45.65;100245.44;5046752;28;19923;-82
2023/11/29 05:53:24;;;;;;;;;;;;;;;3.54;45.31;100244.19;5045783;28;20454;-82
2023/11/29 05:55:49;;;;;;;;;;;;;;;3.54;45.63;100249.47;5049053;28;20888;-81
2023/11/29 05:58:15;;;;;;;;;;;;;;;3.51;45.44;100256.03;5045133;28;19921;-81
2023/11/29 06:00:40;;;;;;;;;;;;;;;3.55;45.37;100243.16;5046906;28;20011;-81
2023/11/29 06:03:06;;;;;;;;;;;;;;;3.59;45.21;100247.84;5046458;28;19927;-81
2023/11/29 06:05:31;;;;;;;;;;;;;;;3.58;45.34;100232.13;5049618;28;19920;-81
2023/11/29 06:07:57;;;;;;;;;;;;;;;3.49;45.36;100238.72;5044904;28;19939;-82
2023/11/29 06:10:22;;;;;;;;;;;;;;;3.60;45.14;100225.63;5053327;28;19932;-81
2023/11/29 06:12:48;;;;;;;;;;;;;;;3.62;45.21;100215.59;5047362;28;19917;-81
2023/11/29 06:15:14;;;;;;;;;;;;;;;3.64;45.10;100212.75;5047777;28;19925;-81
2023/11/29 06:17:39;;;;;;;;;;;;;;;3.61;45.22;100215.81;5044309;28;19925;-82
2023/11/29 06:20:05;;;;;;;;;;;;;;;3.64;45.29;100216.19;5038451;28;19917;-82
2023/11/29 06:22:32;;;;;;;;;;;;;;;3.66;45.16;100205.38;5048802;28;20025;-82
2023/11/29 06:24:58;;;;;;;;;;;;;;;3.68;45.48;100213.94;5046148;28;19931;-82
2023/11/29 06:27:23;;;;;;;;;;;;;;;3.71;45.34;100210.84;5048533;28;20760;-81
2023/11/29 06:29:48;;;;;;;;;;;;;;;3.80;45.32;100214.84;5047877;28;20420;-81
2023/11/29 06:32:13;;;;;;;;;;;;;;;3.83;45.10;100222.38;5043211;28;19921;-82
2023/11/29 06:34:39;;;;;;;;;;;;;;;3.80;44.92;100209.56;5042863;28;19924;-82
2023/11/29 06:37:04;;;;;;;;;;;;;;;3.81;44.98;100211.19;5043203;28;19932;-81
2023/11/29 06:39:30;;;;;;;;;;;;;;;3.82;44.94;100207.50;5048939;28;20774;-81
2023/11/29 06:41:55;;;;;;;;;;;;;;;3.88;45.05;100217.22;5046337;28;20397;-81
2023/11/29 06:44:20;;;;;;;;;;;;;;;3.89;44.93;100218.84;5046731;28;20004;-81
2023/11/29 06:46:46;;;;;;;;;;;;;;;3.95;45.01;100227.78;5043896;28;19960;-82
2023/11/29 06:49:11;;;;;;;;;;;;;;;3.93;44.94;100214.72;5041842;28;19947;-81
2023/11/29 06:51:38;;;;;;;;;;;;;;;3.94;45.05;100216.34;5044801;28;19920;-81
2023/11/29 06:54:04;;;;;;;;;;;;;;;3.98;45.17;100222.03;5043449;28;19955;-81
2023/11/29 06:56:29;;;;;;;;;;;;;;;3.97;44.98;100216.97;5046383;28;20524;-82
2023/11/29 06:58:54;;;;;;;;;;;;;;;3.91;45.12;100221.28;5043474;28;20363;-81
2023/11/29 07:01:20;;;;;;;;;;;;;;;3.83;45.57;100214.41;5045041;28;20305;-82
2023/11/29 07:03:45;;;;;;;;;;;;;;;3.90;45.48;100217.81;5043603;28;20430;-82
2023/11/29 07:06:18;;;;;;;;;;;;;;;3.88;45.38;100219.88;5042110;28;19943;-82
2023/11/29 07:08:43;;;;;;;;;;;;;;;3.94;45.26;100212.88;5044814;28;20320;-81
2023/11/29 07:11:09;;;;;;;;;;;;;;;3.93;45.42;100212.06;5040676;28;19939;-81
2023/11/29 07:13:35;;;;;;;;;;;;;;;3.92;44.95;100207.00;5038486;28;20388;-81
2023/11/29 07:16:00;;;;;;;;;;;;;;;3.88;45.53;100206.63;5037420;28;20526;-82
2023/11/29 07:18:26;;;;;;;;;;;;;;;3.88;45.60;100208.47;5040091;28;19935;-81
2023/11/29 07:20:51;;;;;;;;;;;;;;;3.85;45.48;100208.91;5038557;28;19970;-82
2023/11/29 07:23:17;;;;;;;;;;;;;;;3.81;45.50;100205.88;5040115;28;19917;-82
2023/11/29 07:25:42;;;;;;;;;;;;;;;3.81;45.54;100211.19;5039486;28;19924;-81
2023/11/29 07:28:07;;;;;;;;;;;;;;;3.78;45.63;100211.63;5039234;28;19920;-81
2023/11/29 07:30:33;;;;;;;;;;;;;;;3.73;45.97;100211.44;5048904;28;19928;-81
2023/11/29 07:32:58;;;;;;;;;;;;;;;3.76;45.84;100211.00;5043367;28;19921;-82
2023/11/29 07:35:23;;;;;;;;;;;;;;;3.75;45.87;100214.66;5043803;28;19925;-81
2023/11/29 07:37:49;;;;;;;;;;;;;;;3.77;45.85;100214.44;5046208;28;19956;-81
2023/11/29 07:40:14;;;;;;;;;;;;;;;3.76;46.21;100218.94;5043451;28;19920;-81
2023/11/29 07:42:40;;;;;;;;;;;;;;;3.80;46.06;100209.56;5045491;28;19925;-81
2023/11/29 07:45:06;;;;;;;;;;;;;;;3.80;45.95;100209.56;5044931;28;19917;-82
2023/11/29 07:47:31;;;;;;;;;;;;;;;3.83;45.92;100210.97;5047931;28;20028;-81
2023/11/29 07:49:57;;;;;;;;;;;;;;;3.79;46.10;100220.38;5042416;28;19992;-81
2023/11/29 07:52:22;;;;;;;;;;;;;;;3.81;46.01;100208.53;5044812;28;19925;-82
2023/11/29 07:54:47;;;;;;;;;;;;;;;3.82;46.11;100202.19;5048670;28;19921;-80
2023/11/29 07:57:12;;;;;;;;;;;;;;;3.89;46.20;100213.53;5042347;28;19925;-82
2023/11/29 07:59:38;;;;;;;;;;;;;;;3.93;46.17;100206.78;5042025;28;19924;-82
2023/11/29 08:02:03;;;;;;;;;;;;;;;3.98;46.22;100200.03;5042473;28;19916;-81
2023/11/29 08:04:29;;;;;;;;;;;;;;;3.96;46.15;100200.25;5046916;28;19920;-81
2023/11/29 08:06:54;;;;;;;;;;;;;;;3.99;46.12;100206.94;5043872;28;19924;-81
2023/11/29 08:09:20;;;;;;;;;;;;;;;3.99;46.21;100196.34;5045661;28;19924;-81
2023/11/29 08:11:45;;;;;;;;;;;;;;;4.00;46.26;100198.78;5042228;28;19917;-81
2023/11/29 08:14:11;;;;;;;;;;;;;;;4.01;46.24;100199.59;5040804;28;20684;-81
2023/11/29 08:16:36;;;;;;;;;;;;;;;4.06;46.26;100197.09;5050229;28;19928;-81
2023/11/29 08:19:02;;;;;;;;;;;;;;;4.07;46.15;100204.81;5046214;28;19927;-82
2023/11/29 08:21:28;;;;;;;;;;;;;;;4.04;46.27;100186.69;5044606;28;19999;-82
2023/11/29 08:23:53;;;;;;;;;;;;;;;4.01;46.15;100196.94;5042026;28;20036;-81
2023/11/29 08:26:18;;;;;;;;;;;;;;;4.01;46.22;100196.94;5040572;28;19916;-82
2023/11/29 08:28:44;;;;;;;;;;;;;;;4.03;46.41;100197.53;5046312;28;19917;-81
2023/11/29 08:31:11;;;;;;;;;;;;;;;4.04;46.29;100199.16;5035476;28;20472;-82
2023/11/29 08:33:37;;;;;;;;;;;;;;;4.04;46.54;100194.66;5047468;28;20077;-82
2023/11/29 08:36:03;;;;;;;;;;;;;;;4.02;46.69;100191.41;5040261;28;20000;-81
2023/11/29 08:38:28;;;;;;;;;;;;;;;4.12;46.34;100202.31;5044562;28;20408;-81
2023/11/29 08:40:54;;;;;;;;;;;;;;;4.15;46.30;100190.47;5045312;28;19916;-81
2023/11/29 08:43:20;;;;;;;;;;;;;;;4.12;46.48;100197.00;5044916;28;20011;-81
2023/11/29 08:45:45;;;;;;;;;;;;;;;4.12;46.26;100197.00;5045803;28;19923;-81
2023/11/29 08:48:10;;;;;;;;;;;;;;;4.10;46.79;100200.91;5047756;28;20385;-82
2023/11/29 08:50:36;;;;;;;;;;;;;;;4.15;46.43;100201.09;5044019;28;20600;-82
2023/11/29 08:53:01;;;;;;;;;;;;;;;4.16;46.56;100190.25;5044517;28;19920;-81
2023/11/29 08:55:27;;;;;;;;;;;;;;;4.21;46.28;100189.59;5045260;28;19924;-82
2023/11/29 08:57:53;;;;;;;;;;;;;;;4.28;46.55;100195.63;5041803;28;19932;-81
2023/11/29 09:00:21;;;;;;;;;;;;;;;4.33;46.48;100197.66;5047460;28;20343;-81
2023/11/29 09:02:47;;;;;;;;;;;;;;;4.38;46.53;100190.63;5047187;28;20289;-81
2023/11/29 09:05:12;;;;;;;;;;;;;;;4.43;46.20;100184.66;5048308;28;20398;-81
2023/11/29 09:07:37;;;;;;;;;;;;;;;4.40;46.38;100187.75;5048667;28;20198;-82
2023/11/29 09:10:05;;;;;;;;;;;;;;;4.36;46.57;100187.41;5046381;28;19925;-82
2023/11/29 09:12:30;;;;;;;;;;;;;;;4.40;46.55;100182.47;5050122;28;19925;-81
2023/11/29 09:14:55;;;;;;;;;;;;;;;4.47;46.52;100178.69;5049419;28;20514;-82
2023/11/29 09:17:22;;;;;;;;;;;;;;;4.53;46.47;100183.13;5046637;28;20410;-81
2023/11/29 09:19:48;;;;;;;;;;;;;;;4.53;46.56;100179.66;5051151;28;19948;-82
2023/11/29 09:22:13;;;;;;;;;;;;;;;4.43;46.58;100177.50;5049594;28;20371;-82
2023/11/29 09:24:39;;;;;;;;;;;;;;;4.48;46.45;100174.19;5052161;28;19983;-82
2023/11/29 09:27:04;;;;;;;;;;;;;;;4.48;46.63;100184.81;5048963;28;19920;-80
2023/11/29 09:29:29;;;;;;;;;;;;;;;4.48;46.53;100185.63;5048347;28;20373;-81
2023/11/29 09:31:55;;;;;;;;;;;;;;;4.48;46.58;100175.00;5049506;28;19921;-82
2023/11/29 09:34:22;;;;;;;;;;;;;;;4.55;46.31;100180.25;5048739;28;19921;-82
2023/11/29 09:36:47;;;;;;;;;;;;;;;4.52;46.77;100180.69;5043662;28;19920;-81
2023/11/29 09:39:14;;;;;;;;;;;;;;;4.57;46.56;100174.72;5049314;28;19917;-81
2023/11/29 09:41:40;;;;;;;;;;;;;;;4.62;46.55;100174.84;5049524;28;20357;-82
2023/11/29 09:44:06;;;;;;;;;;;;;;;4.65;46.69;100169.91;5050581;28;19939;-81
2023/11/29 09:46:31;;;;;;;;;;;;;;;4.70;46.47;100172.72;5049167;28;20023;-82
2023/11/29 09:49:00;;;;;;;;;;;;;;;4.71;46.39;100174.34;5049381;28;20001;-82
2023/11/29 09:51:25;;;;;;;;;;;;;;;4.71;46.72;100176.19;5047884;28;19931;-82
2023/11/29 09:53:50;;;;;;;;;;;;;;;4.81;46.44;100173.78;5050603;28;19920;-82
2023/11/29 09:56:16;;;;;;;;;;;;;;;4.76;46.58;100173.66;5049685;28;20427;-82
2023/11/29 09:58:41;;;;;;;;;;;;;;;4.74;46.99;100160.63;5049518;28;19954;-82
2023/11/29 10:01:06;;;;;;;;;;;;;;;4.78;46.79;100153.00;5050047;28;19923;-81
2023/11/29 10:03:34;;;;;;;;;;;;;;;4.85;46.51;100153.75;5046815;28;20455;-82
2023/11/29 10:05:59;;;;;;;;;;;;;;;4.82;46.36;100148.88;5050133;28;20411;-82
2023/11/29 10:08:25;;;;;;;;;;;;;;;4.79;46.89;100150.13;5049327;28;19920;-82
2023/11/29 10:10:50;;;;;;;;;;;;;;;4.84;46.61;100136.19;5050694;28;21423;-82
2023/11/29 10:13:15;;;;;;;;;;;;;;;4.84;46.80;100141.50;5049522;28;19923;-82
2023/11/29 10:15:45;;;;;;;;;;;;;;;4.86;46.73;100144.75;5049319;28;19916;-82
2023/11/29 10:18:10;;;;;;;;;;;;;;;4.81;46.59;100148.06;5048239;28;19927;-81
2023/11/29 10:20:35;;;;;;;;;;;;;;;4.71;46.74;100152.31;5049963;28;19917;-82
2023/11/29 10:23:01;;;;;;;;;;;;;;;4.62;47.02;100153.63;5048986;28;19920;-83
2023/11/29 10:25:26;;;;;;;;;;;;;;;4.59;46.88;100154.88;5048168;28;20406;-82
2023/11/29 10:27:51;;;;;;;;;;;;;;;4.61;47.16;100154.66;5050590;28;19970;-82
2023/11/29 10:30:17;;;;;;;;;;;;;;;4.62;47.10;100154.44;5048424;28;19935;-82
2023/11/29 10:32:43;;;;;;;;;;;;;;;4.55;47.02;100159.03;5048124;28;19924;-82
2023/11/29 10:35:11;;;;;;;;;;;;;;;4.55;47.04;100162.50;5046918;28;19917;-81
2023/11/29 10:37:43;;;;;;;;;;;;;;;4.59;46.83;100156.72;5053133;28;19979;-82
2023/11/29 10:40:09;;;;;;;;;;;;;;;4.62;47.16;100156.28;5050251;28;19932;-81
2023/11/29 10:42:36;;;;;;;;;;;;;;;4.65;46.92;100159.28;5048366;28;19925;-82
2023/11/29 10:45:02;;;;;;;;;;;;;;;4.66;47.11;100147.63;5049515;28;19917;-82
2023/11/29 10:47:32;;;;;;;;;;;;;;;4.69;47.14;100138.44;5046045;28;21030;-81
2023/11/29 10:50:01;;;;;;;;;;;;;;;4.75;47.02;100137.53;5049642;28;19917;-82
2023/11/29 10:52:26;;;;;;;;;;;;;;;4.80;46.94;100135.00;5048786;28;19921;-82
2023/11/29 10:54:52;;;;;;;;;;;;;;;4.85;47.22;100133.31;5048525;28;20665;-82
2023/11/29 10:57:44;;;;;;;;;;;;;;;4.95;46.93;100132.75;5047779;28;20497;-82
2023/11/29 11:00:15;;;;;;;;;;;;;;;4.94;46.72;100131.16;5048783;28;19943;-82
2023/11/29 11:02:47;;;;;;;;;;;;;;;4.97;46.94;100119.25;5043954;28;20074;-81
2023/11/29 11:05:15;;;;;;;;;;;;;;;4.94;47.00;100117.06;5045990;28;19924;-81
2023/11/29 11:07:44;;;;;;;;;;;;;;;4.96;46.60;100125.59;5042547;28;19917;-81
2023/11/29 11:10:10;;;;;;;;;;;;;;;4.94;46.70;100131.16;5050459;28;19928;-82
2023/11/29 11:12:36;;;;;;;;;;;;;;;4.91;46.92;100136.09;5050221;28;20414;-82
2023/11/29 11:15:09;;;;;;;;;;;;;;;4.88;47.11;100115.31;5050897;28;19954;-82
2023/11/29 11:17:35;;;;;;;;;;;;;;;4.91;46.95;100109.56;5049102;28;19928;-82
2023/11/29 11:20:06;;;;;;;;;;;;;;;4.88;46.95;100118.78;5047820;28;19967;-82
2023/11/29 11:22:37;;;;;;;;;;;;;;;4.79;47.18;100110.31;5046760;28;19927;-81
2023/11/29 11:25:03;;;;;;;;;;;;;;;4.76;47.22;100105.47;5047575;28;20015;-82
2023/11/29 11:27:37;;;;;;;;;;;;;;;4.74;47.36;100101.41;5045596;28;19974;-81
2023/11/29 11:30:14;;;;;;;;;;;;;;;4.79;47.02;100097.03;5040528;28;19963;-81
2023/11/29 11:32:44;;;;;;;;;;;;;;;4.77;47.26;100096.47;5045324;28;19927;-81
2023/11/29 11:35:16;;;;;;;;;;;;;;;4.77;47.43;100093.81;5042541;28;19920;-81
2023/11/29 11:37:43;;;;;;;;;;;;;;;4.75;47.50;100082.63;5039676;28;20400;-82
2023/11/29 11:40:09;;;;;;;;;;;;;;;4.81;47.18;100089.66;5040563;28;19925;-81
2023/11/29 11:42:34;;;;;;;;;;;;;;;4.82;47.38;100088.63;5036365;28;19921;-81
2023/11/29 11:45:00;;;;;;;;;;;;;;;4.87;47.23;100097.78;5036263;28;20563;-81
2023/11/29 11:47:25;;;;;;;;;;;;;;;4.91;47.27;100091.78;5044204;28;19921;-81
2023/11/29 11:49:50;;;;;;;;;;;;;;;4.92;47.50;100085.44;5043364;28;19960;-81
2023/11/29 11:52:16;;;;;;;;;;;;;;;4.93;47.11;100080.94;5037962;28;19916;-81
2023/11/29 11:54:41;;;;;;;;;;;;;;;4.93;47.80;100076.44;5041536;28;19921;-81
2023/11/29 11:57:08;;;;;;;;;;;;;;;4.96;47.54;100075.97;5040904;28;20012;-81
2023/11/29 11:59:34;;;;;;;;;;;;;;;4.88;47.44;100086.13;5045197;28;20575;-82
2023/11/29 12:02:00;;;;;;;;;;;;;;;4.87;47.38;100074.69;5040845;28;19928;-81
2023/11/29 12:04:26;;;;;;;;;;;;;;;4.83;47.65;100081.47;5041829;28;19920;-81
2023/11/29 12:06:52;;;;;;;;;;;;;;;4.77;47.95;100072.59;5038078;28;19948;-82
2023/11/29 12:09:18;;;;;;;;;;;;;;;4.77;47.54;100074.44;5042309;28;19956;-82
2023/11/29 12:11:43;;;;;;;;;;;;;;;4.71;48.09;100084.09;5039327;28;19969;-82
2023/11/29 12:14:09;;;;;;;;;;;;;;;4.70;48.15;100076.38;5040912;28;20015;-82
2023/11/29 12:16:35;;;;;;;;;;;;;;;4.71;48.07;100075.34;5036470;28;19925;-81
2023/11/29 12:19:01;;;;;;;;;;;;;;;4.80;47.71;100071.31;5039032;28;19925;-82
2023/11/29 12:21:28;;;;;;;;;;;;;;;4.79;48.05;100059.88;5043016;28;19925;-81
2023/11/29 12:24:02;;;;;;;;;;;;;;;4.81;48.11;100059.66;5040109;28;19990;-82
2023/11/29 12:26:28;;;;;;;;;;;;;;;4.82;48.18;100058.63;5038443;28;20011;-82
2023/11/29 12:28:57;;;;;;;;;;;;;;;4.78;48.24;100057.47;5041599;28;20333;-82
2023/11/29 12:31:22;;;;;;;;;;;;;;;4.77;48.34;100056.66;5039608;28;19927;-82
2023/11/29 12:33:48;;;;;;;;;;;;;;;4.80;48.29;100047.44;5039915;28;19924;-81
2023/11/29 12:36:14;;;;;;;;;;;;;;;4.85;48.41;100042.28;5041509;28;19921;-83
2023/11/29 12:38:39;;;;;;;;;;;;;;;4.83;48.75;100037.16;5044097;28;19925;-81
2023/11/29 12:41:05;;;;;;;;;;;;;;;4.83;48.72;100050.44;5045417;28;19916;-81